createdAt,value
2019-05-20T00:01:07.059Z,100228.58
2019-05-20T00:03:35.850Z,100229.09
2019-05-20T00:06:05.232Z,100220.22
2019-05-20T00:08:34.040Z,100220.22
2019-05-20T00:11:02.818Z,100232.00
2019-05-20T00:13:31.560Z,100233.14
2019-05-20T00:16:00.327Z,100233.50
2019-05-20T00:18:29.103Z,100229.22
2019-05-20T00:20:57.852Z,100230.33
2019-05-20T00:23:26.644Z,100230.33
2019-05-20T00:25:55.411Z,100226.02
2019-05-20T00:28:24.215Z,100227.67
2019-05-20T00:30:52.965Z,100229.55
2019-05-20T00:33:21.765Z,100230.95
2019-05-20T00:35:50.573Z,100229.88
2019-05-20T00:38:19.321Z,100231.81
2019-05-20T00:40:48.061Z,100235.31
2019-05-20T00:43:16.825Z,100231.81
2019-05-20T00:45:45.560Z,100231.30
2019-05-20T00:48:14.337Z,100228.88
2019-05-20T00:50:43.009Z,100230.76
2019-05-20T00:53:11.825Z,100231.56
2019-05-20T00:55:41.967Z,100236.70
2019-05-20T00:58:10.804Z,100242.95
2019-05-20T01:00:40.322Z,100244.89
2019-05-20T01:03:09.140Z,100243.53
2019-05-20T01:05:37.918Z,100235.12
2019-05-20T01:08:06.790Z,100234.61
2019-05-20T01:10:35.617Z,100243.00
2019-05-20T01:13:05.150Z,100243.00
2019-05-20T01:15:34.033Z,100247.86
2019-05-20T01:18:02.904Z,100249.16
2019-05-20T01:20:31.641Z,100248.57
2019-05-20T01:23:00.401Z,100250.48
2019-05-20T01:25:29.165Z,100250.23
2019-05-20T01:27:57.975Z,100251.88
2019-05-20T01:30:26.715Z,100251.88
2019-05-20T01:32:55.470Z,100255.13
2019-05-20T01:35:24.365Z,100253.50
2019-05-20T01:37:53.106Z,100250.52
2019-05-20T01:40:21.920Z,100253.75
2019-05-20T01:42:50.803Z,100248.00
2019-05-20T01:45:19.549Z,100251.15
2019-05-20T01:47:48.299Z,100250.77
2019-05-20T01:50:17.085Z,100256.08
2019-05-20T01:52:46.058Z,100250.17
2019-05-20T01:55:14.945Z,100250.17
2019-05-20T01:57:43.687Z,100249.88
2019-05-20T02:00:14.023Z,100258.77
2019-05-20T02:02:43.091Z,100258.77
2019-05-20T02:05:12.014Z,100261.22
2019-05-20T02:07:40.774Z,100267.67
2019-05-20T02:10:10.084Z,100262.50
2019-05-20T02:12:38.829Z,100264.95
2019-05-20T02:15:12.386Z,100260.36
2019-05-20T02:17:41.342Z,100263.63
2019-05-20T02:20:11.088Z,100262.27
2019-05-20T02:22:39.844Z,100264.20
2019-05-20T02:25:08.877Z,100255.00
2019-05-20T02:27:37.622Z,100254.25
2019-05-20T02:30:12.248Z,100252.11
2019-05-20T02:32:41.142Z,100255.38
2019-05-20T02:35:09.894Z,100260.80
2019-05-20T02:37:38.589Z,100260.02
2019-05-20T02:40:09.144Z,100260.02
2019-05-20T02:42:37.844Z,100258.16
2019-05-20T02:45:07.974Z,100261.72
2019-05-20T02:47:36.762Z,100257.37
2019-05-20T02:50:08.329Z,100257.67
2019-05-20T02:52:37.124Z,100259.00
2019-05-20T02:55:07.550Z,100259.84
2019-05-20T02:57:36.351Z,100259.03
2019-05-20T03:00:07.958Z,100260.05
2019-05-20T03:02:36.845Z,100263.14
2019-05-20T03:05:07.299Z,100268.88
2019-05-20T03:07:36.133Z,100272.41
2019-05-20T03:10:07.163Z,100274.78
2019-05-20T03:12:36.013Z,100279.46
2019-05-20T03:15:10.336Z,100280.52
2019-05-20T03:17:39.094Z,100268.09
2019-05-20T03:20:09.463Z,100273.46
2019-05-20T03:22:38.268Z,100279.16
2019-05-20T03:25:08.506Z,100278.95
2019-05-20T03:27:37.396Z,100281.39
2019-05-20T03:30:07.608Z,100289.57
2019-05-20T03:32:36.531Z,100295.81
2019-05-20T03:35:07.477Z,100301.81
2019-05-20T03:37:36.271Z,100304.29
2019-05-20T03:40:06.531Z,100291.53
2019-05-20T03:42:35.432Z,100288.54
2019-05-20T03:45:06.562Z,100282.02
2019-05-20T03:47:35.350Z,100283.95
2019-05-20T03:50:05.469Z,100280.45
2019-05-20T03:52:34.238Z,100276.64
2019-05-20T03:55:03.048Z,100276.05
2019-05-20T03:57:31.842Z,100272.52
2019-05-20T04:00:00.691Z,100278.52
2019-05-20T04:02:29.434Z,100287.23
2019-05-20T04:05:02.442Z,100289.14
2019-05-20T04:07:28.765Z,100294.33
2019-05-20T04:09:57.534Z,100289.95
2019-05-20T04:12:26.446Z,100283.75
2019-05-20T04:14:55.206Z,100277.81
2019-05-20T04:17:23.993Z,100284.87
2019-05-20T04:19:52.812Z,100303.55
2019-05-20T04:22:21.601Z,100296.77
2019-05-20T04:24:50.389Z,100292.09
2019-05-20T04:27:19.135Z,100298.05
2019-05-20T04:29:47.904Z,100296.60
2019-05-20T04:32:16.661Z,100300.16
2019-05-20T04:34:45.367Z,100296.30
2019-05-20T04:37:14.281Z,100309.58
2019-05-20T04:39:43.036Z,100306.78
2019-05-20T04:42:11.783Z,100308.71
2019-05-20T04:44:40.573Z,100310.05
2019-05-20T04:47:09.385Z,100308.66
2019-05-20T04:49:38.122Z,100314.02
2019-05-20T04:52:06.919Z,100314.23
2019-05-20T04:54:43.937Z,100314.27
2019-05-20T04:57:13.178Z,100304.19
2019-05-20T04:59:41.921Z,100303.84
2019-05-20T05:02:10.681Z,100296.98
2019-05-20T05:04:39.421Z,100300.48
2019-05-20T05:07:08.558Z,100295.63
2019-05-20T05:09:42.932Z,100301.33
2019-05-20T05:12:11.993Z,100305.41
2019-05-20T05:14:40.870Z,100304.29
2019-05-20T05:17:09.615Z,100296.98
2019-05-20T05:19:38.605Z,100301.27
2019-05-20T05:22:07.496Z,100301.81
2019-05-20T05:24:36.344Z,100305.52
2019-05-20T05:27:05.500Z,100306.33
2019-05-20T05:29:34.351Z,100310.81
2019-05-20T05:32:03.105Z,100313.87
2019-05-20T05:34:31.835Z,100317.13
2019-05-20T05:37:00.594Z,100313.25
2019-05-20T05:39:29.368Z,100313.22
2019-05-20T05:41:58.120Z,100311.05
2019-05-20T05:44:38.617Z,100315.33
2019-05-20T05:47:07.457Z,100311.48
2019-05-20T05:49:36.213Z,100310.11
2019-05-20T05:52:05.211Z,100311.23
2019-05-20T05:54:33.959Z,100316.09
2019-05-20T05:57:02.829Z,100320.95
2019-05-20T05:59:31.581Z,100320.02
2019-05-20T06:02:00.330Z,100316.67
2019-05-20T06:04:29.089Z,100316.67
2019-05-20T06:06:57.868Z,100312.23
2019-05-20T06:09:26.651Z,100314.59
2019-05-20T06:11:55.394Z,100314.25
2019-05-20T06:14:24.259Z,100319.33
2019-05-20T06:16:53.108Z,100320.33
2019-05-20T06:19:21.910Z,100324.15
2019-05-20T06:21:50.706Z,100328.09
2019-05-20T06:24:19.457Z,100328.41
2019-05-20T06:26:48.219Z,100328.18
2019-05-20T06:29:17.013Z,100324.09
2019-05-20T06:31:45.753Z,100337.12
2019-05-20T06:34:14.497Z,100337.12
2019-05-20T06:36:45.007Z,100339.44
2019-05-20T06:39:15.173Z,100334.44
2019-05-20T06:41:43.938Z,100340.70
2019-05-20T06:44:12.698Z,100339.31
2019-05-20T06:46:41.441Z,100333.80
2019-05-20T06:49:10.224Z,100329.28
2019-05-20T06:51:38.970Z,100322.37
2019-05-20T06:54:07.734Z,100329.45
2019-05-20T06:56:37.528Z,100325.84
2019-05-20T06:59:06.311Z,100325.37
2019-05-20T07:01:35.074Z,100333.73
2019-05-20T07:04:03.813Z,100333.14
2019-05-20T07:06:45.374Z,100337.02
2019-05-20T07:09:03.036Z,100344.38
2019-05-20T07:11:31.907Z,100342.51
2019-05-20T07:14:00.670Z,100347.82
2019-05-20T07:16:29.490Z,100346.64
2019-05-20T07:18:58.238Z,100343.87
2019-05-20T07:21:26.983Z,100355.77
2019-05-20T07:23:55.754Z,100363.40
2019-05-20T07:26:24.634Z,100368.73
2019-05-20T07:28:53.395Z,100367.35
2019-05-20T07:31:22.129Z,100370.77
2019-05-20T07:33:50.910Z,100374.31
2019-05-20T07:36:19.674Z,100369.19
2019-05-20T07:38:48.411Z,100369.19
2019-05-20T07:41:17.194Z,100369.19
2019-05-20T07:43:45.932Z,100365.48
2019-05-20T07:46:16.637Z,100370.39
2019-05-20T07:48:45.460Z,100380.31
2019-05-20T07:51:14.919Z,100382.56
2019-05-20T07:53:44.002Z,100379.98
2019-05-20T07:56:21.945Z,100378.84
2019-05-20T07:58:53.609Z,100375.19
2019-05-20T08:01:23.037Z,100377.92
2019-05-20T08:03:51.800Z,100379.49
2019-05-20T08:06:20.552Z,100374.25
2019-05-20T08:08:49.344Z,100377.31
2019-05-20T08:11:18.020Z,100386.73
2019-05-20T08:13:46.765Z,100387.05
2019-05-20T08:16:15.529Z,100390.80
2019-05-20T08:18:44.266Z,100381.39
2019-05-20T08:21:13.153Z,100376.37
2019-05-20T08:23:41.927Z,100381.88
2019-05-20T08:26:10.705Z,100384.72
2019-05-20T08:28:39.510Z,100401.26
2019-05-20T08:31:08.329Z,100395.38
2019-05-20T08:33:37.175Z,100400.76
2019-05-20T08:36:05.961Z,100402.13
2019-05-20T08:38:34.726Z,100398.56
2019-05-20T08:41:03.658Z,100403.21
2019-05-20T08:43:32.423Z,100393.88
2019-05-20T08:46:01.194Z,100393.88
2019-05-20T08:48:30.034Z,100397.15
2019-05-20T08:50:58.786Z,100398.52
2019-05-20T08:53:27.741Z,100401.00
2019-05-20T08:55:56.581Z,100409.22
2019-05-20T08:58:25.458Z,100414.44
2019-05-20T09:00:54.324Z,100406.91
2019-05-20T09:03:23.077Z,100411.95
2019-05-20T09:05:52.537Z,100411.37
2019-05-20T09:08:21.284Z,100412.67
2019-05-20T09:10:50.060Z,100409.03
2019-05-20T09:13:18.904Z,100413.23
2019-05-20T09:15:47.639Z,100407.98
2019-05-20T09:18:16.420Z,100417.83
2019-05-20T09:20:45.166Z,100408.17
2019-05-20T09:23:13.962Z,100412.73
2019-05-20T09:25:42.688Z,100412.67
2019-05-20T09:28:11.424Z,100414.91
2019-05-20T09:30:40.200Z,100414.91
2019-05-20T09:33:08.936Z,100415.20
2019-05-20T09:35:37.695Z,100416.54
2019-05-20T09:38:19.461Z,100419.61
2019-05-20T09:40:45.861Z,100427.34
2019-05-20T09:43:14.633Z,100419.55
2019-05-20T09:45:43.285Z,100426.92
2019-05-20T09:48:14.295Z,100432.12
2019-05-20T09:50:43.208Z,100427.08
2019-05-20T09:53:13.160Z,100435.06
2019-05-20T09:55:41.904Z,100424.00
2019-05-20T09:58:10.849Z,100430.62
2019-05-20T10:00:39.516Z,100433.55
2019-05-20T10:03:08.271Z,100438.30
2019-05-20T10:05:37.786Z,100440.20
2019-05-20T10:08:07.107Z,100440.73
2019-05-20T10:10:35.972Z,100438.64
2019-05-20T10:13:05.564Z,100445.88
2019-05-20T10:15:34.425Z,100451.95
2019-05-20T10:18:03.190Z,100454.18
2019-05-20T10:20:32.029Z,100454.71
2019-05-20T10:23:00.885Z,100441.95
2019-05-20T10:25:29.645Z,100439.54
2019-05-20T10:27:58.385Z,100437.34
2019-05-20T10:30:27.147Z,100431.69
2019-05-20T10:32:55.884Z,100421.09
2019-05-20T10:35:24.754Z,100420.17
2019-05-20T10:37:53.508Z,100417.48
2019-05-20T10:40:22.350Z,100422.36
2019-05-20T10:42:51.116Z,100422.36
2019-05-20T10:45:19.885Z,100426.33
2019-05-20T10:47:48.713Z,100428.95
2019-05-20T10:50:17.518Z,100422.63
2019-05-20T10:52:46.347Z,100428.75
2019-05-20T10:55:15.287Z,100425.81
2019-05-20T10:57:44.099Z,100424.45
2019-05-20T11:00:13.102Z,100424.67
2019-05-20T11:02:41.931Z,100415.39
2019-05-20T11:05:10.777Z,100418.17
2019-05-20T11:07:39.658Z,100423.69
2019-05-20T11:10:10.391Z,100420.09
2019-05-20T11:12:39.149Z,100424.89
2019-05-20T11:15:11.338Z,100423.18
2019-05-20T11:17:40.147Z,100426.09
2019-05-20T11:20:11.376Z,100432.39
2019-05-20T11:22:40.190Z,100436.05
2019-05-20T11:25:09.250Z,100436.80
2019-05-20T11:27:37.991Z,100441.26
2019-05-20T11:30:10.627Z,100433.95
2019-05-20T11:32:39.327Z,100434.01
2019-05-20T11:35:09.535Z,100432.92
2019-05-20T11:37:38.445Z,100434.98
2019-05-20T11:40:09.329Z,100437.09
2019-05-20T11:42:38.453Z,100430.91
2019-05-20T11:45:09.972Z,100433.13
2019-05-20T11:47:38.751Z,100427.58
2019-05-20T11:50:09.888Z,100422.08
2019-05-20T11:52:38.846Z,100412.23
2019-05-20T11:55:08.911Z,100418.59
2019-05-20T11:57:37.788Z,100415.03
2019-05-20T12:00:09.022Z,100417.63
2019-05-20T12:02:38.667Z,100417.55
2019-05-20T12:05:09.045Z,100414.94
2019-05-20T12:07:37.717Z,100408.87
2019-05-20T12:10:11.254Z,100411.46
2019-05-20T12:12:39.997Z,100413.30
2019-05-20T12:15:10.026Z,100416.45
2019-05-20T12:17:38.786Z,100423.22
2019-05-20T12:20:11.923Z,100416.66
2019-05-20T12:22:40.614Z,100421.71
2019-05-20T12:25:10.152Z,100421.61
2019-05-20T12:27:38.919Z,100419.61
2019-05-20T12:30:08.213Z,100426.18
2019-05-20T12:32:37.081Z,100423.31
2019-05-20T12:35:08.209Z,100422.63
2019-05-20T12:37:38.736Z,100424.36
2019-05-20T12:40:09.138Z,100416.89
2019-05-20T12:42:38.474Z,100422.58
2019-05-20T12:45:10.243Z,100422.58
2019-05-20T12:47:39.108Z,100430.78
2019-05-20T12:50:10.276Z,100424.60
2019-05-20T12:52:39.034Z,100418.41
2019-05-20T12:55:10.543Z,100423.59
2019-05-20T12:57:39.309Z,100424.36
2019-05-20T13:00:11.373Z,100420.17
2019-05-20T13:02:43.964Z,100418.27
2019-05-20T13:05:13.438Z,100412.50
2019-05-20T13:07:42.248Z,100419.77
2019-05-20T13:10:28.237Z,100414.03
2019-05-20T13:12:43.045Z,100410.68
2019-05-20T13:15:12.494Z,100416.67
2019-05-20T13:17:44.626Z,100408.62
2019-05-20T13:20:11.948Z,100410.03
2019-05-20T13:22:40.686Z,100399.19
2019-05-20T13:25:09.446Z,100400.14
2019-05-20T13:27:38.202Z,100445.69
2019-05-20T13:30:08.844Z,100445.69
2019-05-20T13:32:37.599Z,100406.16
2019-05-20T13:35:07.653Z,100408.66
2019-05-20T13:37:36.411Z,100406.53
2019-05-20T13:40:07.580Z,100410.02
2019-05-20T13:42:37.052Z,100387.34
2019-05-20T13:45:08.857Z,100404.62
2019-05-20T13:47:37.625Z,100410.45
2019-05-20T13:50:08.652Z,100405.98
2019-05-20T13:52:37.462Z,100405.20
2019-05-20T13:55:06.462Z,100402.86
2019-05-20T13:57:35.312Z,100407.42
2019-05-20T14:00:05.659Z,100403.26
2019-05-20T14:02:34.416Z,100404.84
2019-05-20T14:05:03.219Z,100408.66
2019-05-20T14:07:32.133Z,100415.08
2019-05-20T14:10:00.895Z,100406.66
2019-05-20T14:12:29.662Z,100411.23
2019-05-20T14:14:58.415Z,100415.70
2019-05-20T14:17:27.673Z,100407.12
2019-05-20T14:19:56.534Z,100407.12
2019-05-20T14:22:25.344Z,100416.59
2019-05-20T14:24:54.112Z,100417.48
2019-05-20T14:27:22.857Z,100424.44
2019-05-20T14:29:51.654Z,100417.78
2019-05-20T14:32:20.431Z,100417.54
2019-05-20T14:34:49.220Z,100421.06
2019-05-20T14:37:18.024Z,100420.06
2019-05-20T14:39:46.956Z,100414.25
2019-05-20T14:42:16.701Z,100418.97
2019-05-20T14:44:45.488Z,100422.44
2019-05-20T14:47:14.418Z,100410.26
2019-05-20T14:49:45.969Z,100412.97
2019-05-20T14:52:16.230Z,100403.23
2019-05-20T14:54:46.860Z,100404.59
2019-05-20T14:57:15.691Z,100399.73
2019-05-20T14:59:47.430Z,100393.53
2019-05-20T15:02:16.182Z,100390.84
2019-05-20T15:04:44.977Z,100384.36
2019-05-20T15:07:28.592Z,100381.87
2019-05-20T15:09:44.357Z,100377.27
2019-05-20T15:12:13.184Z,100383.24
2019-05-20T15:14:42.637Z,100372.80
2019-05-20T15:17:20.891Z,100375.75
2019-05-20T15:19:49.799Z,100376.75
2019-05-20T15:22:18.634Z,100380.55
2019-05-20T15:24:47.411Z,100364.67
2019-05-20T15:27:16.175Z,100364.67
2019-05-20T15:29:44.910Z,100381.92
2019-05-20T15:32:13.699Z,100379.01
2019-05-20T15:34:42.466Z,100330.42
2019-05-20T15:37:11.223Z,100380.03
2019-05-20T15:39:39.979Z,100370.81
2019-05-20T15:42:08.783Z,100372.73
2019-05-20T15:44:37.549Z,100372.86
2019-05-20T15:47:06.278Z,100374.89
2019-05-20T15:49:35.051Z,100371.12
2019-05-20T15:52:03.810Z,100367.47
2019-05-20T15:54:32.599Z,100372.73
2019-05-20T15:57:01.372Z,100370.22
2019-05-20T15:59:44.831Z,100367.68
2019-05-20T16:02:00.585Z,100372.19
2019-05-20T16:04:29.255Z,100364.85
2019-05-20T16:07:00.289Z,100365.17
2019-05-20T16:09:28.469Z,100362.09
2019-05-20T16:11:57.206Z,100366.23
2019-05-20T16:14:25.902Z,100359.98
2019-05-20T16:16:54.687Z,100353.98
2019-05-20T16:19:23.450Z,100363.64
2019-05-20T16:21:52.190Z,100360.20
2019-05-20T16:24:20.952Z,100361.80
2019-05-20T16:26:49.743Z,100370.00
2019-05-20T16:29:18.560Z,100365.92
2019-05-20T16:31:47.324Z,100366.86
2019-05-20T16:34:16.213Z,100371.10
2019-05-20T16:36:44.997Z,100369.92
2019-05-20T16:39:13.749Z,100373.61
2019-05-20T16:41:42.608Z,100378.55
2019-05-20T16:44:11.354Z,100376.60
2019-05-20T16:46:40.246Z,100383.68
2019-05-20T16:49:09.098Z,100384.52
2019-05-20T16:51:37.932Z,100381.93
2019-05-20T16:54:06.715Z,100388.86
2019-05-20T16:56:35.458Z,100391.08
2019-05-20T16:59:04.236Z,100392.91
2019-05-20T17:01:45.554Z,100324.55
2019-05-20T17:04:03.501Z,100398.75
2019-05-20T17:06:32.237Z,100397.72
2019-05-20T17:09:01.054Z,100403.26
2019-05-20T17:11:29.788Z,100405.40
2019-05-20T17:13:58.554Z,100409.75
2019-05-20T17:16:27.331Z,100420.01
2019-05-20T17:18:56.090Z,100417.20
2019-05-20T17:21:24.857Z,100420.83
2019-05-20T17:23:53.695Z,100432.30
2019-05-20T17:26:22.481Z,100421.09
2019-05-20T17:28:51.293Z,100434.94
2019-05-20T17:31:20.137Z,100434.77
2019-05-20T17:33:48.939Z,100438.66
2019-05-20T17:36:17.698Z,100443.02
2019-05-20T17:38:46.530Z,100443.19
2019-05-20T17:41:15.431Z,100447.47
2019-05-20T17:43:44.199Z,100452.84
2019-05-20T17:46:12.931Z,100452.70
2019-05-20T17:48:41.804Z,100458.75
2019-05-20T17:51:10.661Z,100466.30
2019-05-20T17:53:39.448Z,100465.38
2019-05-20T17:56:10.919Z,100465.31
2019-05-20T17:58:39.792Z,100459.81
2019-05-20T18:01:15.535Z,100459.73
2019-05-20T18:03:39.086Z,100473.23
2019-05-20T18:06:07.879Z,100474.36
2019-05-20T18:08:38.210Z,100482.95
2019-05-20T18:11:07.102Z,100481.36
2019-05-20T18:13:35.915Z,100478.29
2019-05-20T18:16:05.223Z,100475.18
2019-05-20T18:18:34.022Z,100461.11
2019-05-20T18:21:02.765Z,100481.68
2019-05-20T18:23:31.528Z,100477.27
2019-05-20T18:26:03.474Z,100480.42
2019-05-20T18:28:30.925Z,100481.23
2019-05-20T18:30:59.666Z,100486.46
2019-05-20T18:33:28.397Z,100483.78
2019-05-20T18:35:57.092Z,100488.95
2019-05-20T18:38:25.862Z,100497.84
2019-05-20T18:40:54.815Z,100266.70
2019-05-20T18:43:23.577Z,100494.33
2019-05-20T18:45:52.388Z,100496.55
2019-05-20T18:48:21.275Z,100496.62
2019-05-20T18:50:50.023Z,100501.66
2019-05-20T18:53:18.761Z,100502.69
2019-05-20T18:55:47.547Z,100502.00
2019-05-20T18:58:16.685Z,100507.93
2019-05-20T19:00:48.121Z,100509.30
2019-05-20T19:03:17.040Z,100520.37
2019-05-20T19:05:46.027Z,100519.80
2019-05-20T19:08:14.908Z,100518.87
2019-05-20T19:10:43.733Z,100517.14
2019-05-20T19:13:12.601Z,100513.28
2019-05-20T19:15:41.501Z,100516.36
2019-05-20T19:18:10.258Z,100522.75
2019-05-20T19:20:48.529Z,100523.94
2019-05-20T19:23:17.710Z,100528.58
2019-05-20T19:25:46.505Z,100527.81
2019-05-20T19:28:15.254Z,100538.11
2019-05-20T19:30:44.050Z,100533.53
2019-05-20T19:33:12.884Z,100542.53
2019-05-20T19:35:41.689Z,100545.86
2019-05-20T19:38:10.431Z,100544.05
2019-05-20T19:40:39.209Z,100542.51
2019-05-20T19:43:08.021Z,100551.23
2019-05-20T19:45:36.783Z,100551.08
2019-05-20T19:48:06.543Z,100550.56
2019-05-20T19:50:35.290Z,100523.91
2019-05-20T19:53:04.069Z,100562.13
2019-05-20T19:55:33.162Z,100563.53
2019-05-20T19:58:01.901Z,100555.17
2019-05-20T20:00:30.642Z,100550.00
2019-05-20T20:02:59.433Z,100554.69
2019-05-20T20:05:31.531Z,100557.90
2019-05-20T20:08:00.317Z,100569.85
2019-05-20T20:10:29.073Z,100568.08
2019-05-20T20:12:57.984Z,100578.17
2019-05-20T20:15:26.737Z,100578.03
2019-05-20T20:17:55.500Z,100575.89
2019-05-20T20:20:24.286Z,100579.39
2019-05-20T20:22:53.044Z,100588.89
2019-05-20T20:25:21.766Z,100584.34
2019-05-20T20:27:50.547Z,100587.20
2019-05-20T20:30:19.383Z,100584.48
2019-05-20T20:32:49.249Z,100590.16
2019-05-20T20:35:19.328Z,100585.30
2019-05-20T20:37:48.103Z,100595.97
2019-05-20T20:40:18.861Z,100592.86
2019-05-20T20:42:47.974Z,100584.72
2019-05-20T20:45:17.111Z,100577.41
2019-05-20T20:47:46.006Z,100584.22
2019-05-20T20:50:16.454Z,100573.13
2019-05-20T20:52:46.321Z,100577.29
2019-05-20T20:55:16.256Z,100576.86
2019-05-20T20:57:45.171Z,100578.34
2019-05-20T21:00:14.402Z,100577.20
2019-05-20T21:02:52.602Z,100582.77
2019-05-20T21:05:13.997Z,100583.55
2019-05-20T21:07:42.883Z,100585.70
2019-05-20T21:10:12.240Z,100584.06
2019-05-20T21:12:41.115Z,100585.59
2019-05-20T21:15:10.522Z,100586.51
2019-05-20T21:17:39.173Z,100593.32
2019-05-20T21:20:09.143Z,100592.03
2019-05-20T21:22:38.617Z,100595.61
2019-05-20T21:25:08.467Z,100588.88
2019-05-20T21:27:37.278Z,100592.38
2019-05-20T21:30:10.415Z,100589.92
2019-05-20T21:32:39.205Z,100600.00
2019-05-20T21:35:07.977Z,100596.97
2019-05-20T21:37:36.845Z,100604.53
2019-05-20T21:40:06.282Z,100605.55
2019-05-20T21:42:35.032Z,100608.55
2019-05-20T21:45:05.439Z,100607.83
2019-05-20T21:47:34.319Z,100560.45
2019-05-20T21:50:03.064Z,100616.52
2019-05-20T21:52:31.812Z,100614.38
2019-05-20T21:55:00.694Z,100620.39
2019-05-20T21:57:29.428Z,100613.06
2019-05-20T21:59:58.155Z,100613.13
2019-05-20T22:02:27.083Z,100616.55
2019-05-20T22:04:55.951Z,100613.36
2019-05-20T22:07:24.765Z,100615.30
2019-05-20T22:09:53.521Z,100617.84
2019-05-20T22:12:22.272Z,100618.37
2019-05-20T22:14:52.815Z,100620.59
2019-05-20T22:17:21.607Z,100620.69
2019-05-20T22:19:50.390Z,100629.70
2019-05-20T22:22:37.022Z,100622.08
2019-05-20T22:25:06.019Z,100624.55
2019-05-20T22:27:34.761Z,100619.45
2019-05-20T22:30:04.944Z,100627.05
2019-05-20T22:32:33.696Z,100619.75
2019-05-20T22:35:02.431Z,100623.06
2019-05-20T22:37:31.189Z,100618.97
2019-05-20T22:39:59.987Z,100614.89
2019-05-20T22:42:28.809Z,100615.88
2019-05-20T22:44:57.645Z,100619.14
2019-05-20T22:47:27.435Z,100616.48
2019-05-20T22:49:56.870Z,100614.02
2019-05-20T22:52:34.997Z,100609.11
2019-05-20T22:55:07.409Z,100612.40
2019-05-20T22:57:37.280Z,100611.88
2019-05-20T23:00:07.165Z,100610.52
2019-05-20T23:02:36.629Z,100606.96
2019-05-20T23:05:08.940Z,100605.34
2019-05-20T23:07:38.447Z,100603.72
2019-05-20T23:10:10.820Z,100598.84
2019-05-20T23:12:40.599Z,100593.66
2019-05-20T23:15:10.447Z,100589.56
2019-05-20T23:17:41.312Z,100580.34
2019-05-20T23:20:11.104Z,100582.52
2019-05-20T23:22:40.590Z,100582.50
2019-05-20T23:25:10.197Z,100577.89
2019-05-20T23:27:39.881Z,100569.14
2019-05-20T23:30:09.786Z,100567.78
2019-05-20T23:32:39.278Z,100574.88
2019-05-20T23:35:09.115Z,100569.22
2019-05-20T23:37:38.617Z,100567.30
2019-05-20T23:40:08.420Z,100569.46
2019-05-20T23:42:37.908Z,100566.48
2019-05-20T23:45:10.227Z,100568.67
2019-05-20T23:47:39.014Z,100569.22
2019-05-20T23:50:09.060Z,100561.35
2019-05-20T23:52:37.793Z,100571.69
2019-05-20T23:55:09.123Z,100438.31
2019-05-20T23:57:37.930Z,100584.48
